Time;durP1;ratioP1;P1;durP2;ratioP2;P2;SDS_P1;SDS_P2;PMS_P1;PMS_P2;Temp;Humidity;BMP_temperature;BMP_pressure;BME280_temperature;BME280_humidity;BME280_pressure;Samples;Min_cycle;Max_cycle;Signal;HPM_P1;HPM_P2
2023/06/05 00:01:56;;;;;;;4.80;2.35;;;;;;;16.51;100.00;100323.63;5096261;28;20051;-61
2023/06/05 00:04:23;;;;;;;7.30;2.60;;;;;;;16.58;100.00;100320.00;5095972;28;20248;-62
2023/06/05 00:06:50;;;;;;;6.70;2.90;;;;;;;16.68;100.00;100324.31;5095993;28;20360;-62
2023/06/05 00:09:16;;;;;;;7.13;2.75;;;;;;;16.71;100.00;100322.09;5097877;28;20233;-61
2023/06/05 00:11:41;;;;;;;5.97;2.67;;;;;;;16.72;100.00;100318.41;5096912;28;20059;-62
2023/06/05 00:14:08;;;;;;;5.75;3.00;;;;;;;16.91;100.00;100324.97;5095426;28;20030;-62
2023/06/05 00:16:34;;;;;;;7.80;3.00;;;;;;;17.08;100.00;100323.72;5095324;28;20040;-61
2023/06/05 00:19:00;;;;;;;10.50;2.83;;;;;;;17.07;100.00;100323.91;5095679;28;20113;-62
2023/06/05 00:21:26;;;;;;;8.52;2.95;;;;;;;16.90;100.00;100323.31;5095464;28;20032;-61
2023/06/05 00:23:51;;;;;;;8.68;3.20;;;;;;;16.80;100.00;100314.78;5096536;28;20055;-61
2023/06/05 00:26:16;;;;;;;5.47;2.95;;;;;;;16.75;100.00;100312.66;5095551;28;20062;-62
2023/06/05 00:28:42;;;;;;;6.82;2.60;;;;;;;16.72;100.00;100312.22;5096411;28;20202;-62
2023/06/05 00:31:07;;;;;;;8.88;3.20;;;;;;;16.54;100.00;100310.72;5094667;28;20287;-62
2023/06/05 00:33:33;;;;;;;7.97;3.00;;;;;;;16.54;100.00;100313.38;5095118;28;20100;-61
2023/06/05 00:35:58;;;;;;;7.00;2.63;;;;;;;16.38;100.00;100302.91;5095393;28;20084;-62
2023/06/05 00:38:23;;;;;;;8.85;4.32;;;;;;;16.26;100.00;100302.53;5095532;28;20059;-62
2023/06/05 00:40:49;;;;;;;7.95;3.53;;;;;;;16.15;100.00;100297.66;5095564;28;20044;-61
2023/06/05 00:43:16;;;;;;;6.15;3.10;;;;;;;16.34;100.00;100303.47;5094815;28;20042;-62
2023/06/05 00:45:41;;;;;;;8.77;3.30;;;;;;;16.67;100.00;100299.41;5095588;28;20043;-61
2023/06/05 00:48:07;;;;;;;8.20;3.20;;;;;;;16.79;100.00;100305.94;5095443;28;20031;-62
2023/06/05 00:50:34;;;;;;;6.80;2.83;;;;;;;16.92;100.00;100299.91;5094711;28;20225;-62
2023/06/05 00:53:03;;;;;;;7.80;3.20;;;;;;;16.88;100.00;100296.78;5095450;28;20036;-62
2023/06/05 00:55:29;;;;;;;6.32;2.58;;;;;;;16.86;100.00;100289.94;5093746;28;20043;-62
2023/06/05 00:57:54;;;;;;;6.35;2.55;;;;;;;16.84;100.00;100297.34;5096765;28;20355;-61
2023/06/05 01:00:21;;;;;;;5.95;2.72;;;;;;;17.13;100.00;100293.72;5095939;28;20057;-62
2023/06/05 01:02:47;;;;;;;6.10;2.70;;;;;;;17.26;100.00;100304.56;5096052;28;20064;-61
2023/06/05 01:05:13;;;;;;;7.30;2.80;;;;;;;17.35;100.00;100308.75;5097379;28;20074;-62
2023/06/05 01:07:39;;;;;;;8.10;2.60;;;;;;;17.31;100.00;100325.38;5094616;28;20346;-62
2023/06/05 01:10:08;;;;;;;8.30;3.05;;;;;;;17.51;100.00;100321.88;5094735;28;20248;-62
2023/06/05 01:13:03;;;;;;;9.27;2.63;;;;;;;17.66;100.00;100326.31;5095184;28;20040;-62
2023/06/05 01:15:31;;;;;;;4.75;2.45;;;;;;;17.70;100.00;100322.28;5093775;28;20280;-61
2023/06/05 01:17:58;;;;;;;6.80;2.53;;;;;;;17.69;100.00;100324.13;5096785;28;20043;-61
2023/06/05 01:20:38;;;;;;;6.68;2.70;;;;;;;17.41;100.00;100329.41;5094272;28;20028;-62
2023/06/05 01:23:08;;;;;;;5.20;2.60;;;;;;;17.62;100.00;100320.50;5096917;28;20067;-61
2023/06/05 01:25:34;;;;;;;9.43;3.42;;;;;;;17.78;100.00;100328.34;5095357;28;20036;-62
2023/06/05 01:28:30;;;;;;;5.88;2.33;;;;;;;17.86;100.00;100330.88;5094843;28;20364;-62
2023/06/05 01:31:06;;;;;;;7.07;2.72;;;;;;;17.95;100.00;100323.50;5094716;28;20298;-62
2023/06/05 01:33:41;;;;;;;4.70;2.83;;;;;;;18.06;100.00;100319.44;5094710;28;20103;-62
2023/06/05 01:36:11;;;;;;;5.03;2.65;;;;;;;17.98;100.00;100323.13;5095138;28;20106;-62
2023/06/05 01:38:38;;;;;;;5.47;2.20;;;;;;;17.81;100.00;100329.78;5096610;28;20043;-61
2023/06/05 01:41:04;;;;;;;4.65;2.50;;;;;;;17.75;100.00;100326.03;5095934;28;20390;-62
2023/06/05 01:43:31;;;;;;;5.18;2.33;;;;;;;17.88;100.00;100321.81;5097252;28;20101;-62
2023/06/05 01:45:59;;;;;;;4.22;2.45;;;;;;;17.86;100.00;100333.53;5098569;28;20048;-61
2023/06/05 01:48:27;;;;;;;6.15;2.53;;;;;;;17.86;100.00;100335.38;5098647;28;20281;-62
2023/06/05 01:50:58;;;;;;;5.82;2.50;;;;;;;17.95;100.00;100331.53;5098041;28;20214;-61
2023/06/05 01:53:24;;;;;;;5.78;3.00;;;;;;;17.93;100.00;100325.56;5100708;28;20063;-62
2023/06/05 01:55:52;;;;;;;6.82;2.53;;;;;;;17.95;100.00;100325.34;5099154;28;20345;-62
2023/06/05 01:58:19;;;;;;;7.47;2.70;;;;;;;18.04;100.00;100338.41;5098079;28;20051;-63
2023/06/05 02:00:46;;;;;;;5.65;2.42;;;;;;;18.05;100.00;100345.41;5098585;28;20039;-63
2023/06/05 02:03:13;;;;;;;5.53;2.30;;;;;;;17.94;100.00;100350.50;5099032;28;20038;-62
2023/06/05 02:05:39;;;;;;;8.85;2.60;;;;;;;17.86;100.00;100352.28;5097965;28;20040;-63
2023/06/05 02:08:05;;;;;;;8.55;2.67;;;;;;;17.84;100.00;100354.34;5096783;28;20042;-61
2023/06/05 02:10:31;;;;;;;8.32;2.83;;;;;;;17.77;100.00;100356.13;5097385;28;20031;-62
2023/06/05 02:12:57;;;;;;;6.13;2.67;;;;;;;17.81;100.00;100359.25;5098211;28;20053;-61
2023/06/05 02:15:22;;;;;;;5.55;2.50;;;;;;;17.84;100.00;100359.69;5097942;28;20095;-62
2023/06/05 02:17:53;;;;;;;7.20;2.15;;;;;;;17.87;100.00;100358.47;5098392;28;20028;-62
2023/06/05 02:20:22;;;;;;;6.75;2.33;;;;;;;17.85;100.00;100361.34;5096317;28;20054;-62
2023/06/05 02:22:51;;;;;;;3.45;2.10;;;;;;;17.74;100.00;100355.69;5098268;28;20099;-63
2023/06/05 02:25:17;;;;;;;7.53;2.80;;;;;;;17.57;100.00;100365.78;5097799;28;20032;-61
2023/06/05 02:27:43;;;;;;;6.55;2.70;;;;;;;17.49;100.00;100364.06;5098202;28;20031;-62
2023/06/05 02:30:09;;;;;;;5.60;2.35;;;;;;;17.55;100.00;100375.88;5098102;28;20032;-62
2023/06/05 02:32:35;;;;;;;4.75;2.63;;;;;;;17.62;100.00;100368.72;5097686;28;20051;-62
2023/06/05 02:35:04;;;;;;;5.65;2.28;;;;;;;17.66;100.00;100363.81;5100395;28;20032;-61
2023/06/05 02:37:37;;;;;;;4.85;1.88;;;;;;;17.81;100.00;100367.28;5099428;28;20044;-62
2023/06/05 02:40:07;;;;;;;5.63;2.47;;;;;;;17.82;100.00;100368.94;5096544;28;20357;-61
2023/06/05 02:42:34;;;;;;;5.50;2.25;;;;;;;17.81;100.00;100365.44;5096682;28;20055;-62
2023/06/05 02:44:59;;;;;;;8.52;2.80;;;;;;;17.83;100.00;100365.25;5097228;28;20440;-62
2023/06/05 02:47:25;;;;;;;4.55;2.22;;;;;;;17.87;100.00;100347.75;5097314;28;20031;-62
2023/06/05 02:49:50;;;;;;;3.80;2.28;;;;;;;17.82;99.71;100348.34;5098915;28;20035;-61
2023/06/05 02:52:16;;;;;;;6.05;2.40;;;;;;;17.35;100.00;100348.06;5098748;28;20246;-61
2023/06/05 02:54:41;;;;;;;5.55;2.33;;;;;;;17.34;100.00;100352.59;5097860;28;20034;-61
2023/06/05 02:57:07;;;;;;;5.85;2.30;;;;;;;17.21;100.00;100347.13;5096101;28;20047;-62
2023/06/05 02:59:39;;;;;;;4.47;2.55;;;;;;;17.24;100.00;100346.75;5096653;28;20038;-62
2023/06/05 03:02:07;;;;;;;8.95;3.00;;;;;;;17.37;100.00;100346.88;5097623;28;20035;-62
2023/06/05 03:04:33;;;;;;;5.65;2.83;;;;;;;17.48;100.00;100358.91;5097448;28;20028;-62
2023/06/05 03:07:09;;;;;;;9.70;2.53;;;;;;;17.55;100.00;100360.63;5095986;28;20043;-61
2023/06/05 03:09:35;;;;;;;7.78;2.38;;;;;;;17.62;100.00;100357.19;5078994;28;20041;-62
2023/06/05 03:12:01;;;;;;;10.80;2.70;;;;;;;17.63;100.00;100342.78;5078111;28;20033;-62
2023/06/05 03:14:27;;;;;;;6.13;2.60;;;;;;;17.62;100.00;100349.97;5095930;28;20035;-62
2023/06/05 03:16:53;;;;;;;4.95;2.20;;;;;;;17.32;100.00;100348.47;5096748;28;20230;-62
2023/06/05 03:19:19;;;;;;;6.18;2.35;;;;;;;17.26;100.00;100342.03;5096155;28;20067;-61
2023/06/05 03:21:44;;;;;;;7.47;2.20;;;;;;;17.15;100.00;100348.72;5096512;28;20036;-62
2023/06/05 03:24:14;;;;;;;6.00;2.38;;;;;;;17.10;100.00;100339.59;5096749;28;20036;-61
2023/06/05 03:26:41;;;;;;;7.07;2.65;;;;;;;16.78;100.00;100333.69;5096435;28;20153;-62
2023/06/05 03:29:07;;;;;;;5.82;2.67;;;;;;;16.50;100.00;100336.16;5096255;28;20032;-62
2023/06/05 03:31:33;;;;;;;8.30;2.85;;;;;;;16.27;100.00;100333.59;5096385;28;20309;-62
2023/06/05 03:33:59;;;;;;;6.10;3.42;;;;;;;16.18;100.00;100331.19;5097153;28;20067;-61
2023/06/05 03:36:28;;;;;;;5.25;2.83;;;;;;;16.39;100.00;100325.94;5096439;28;20046;-62
2023/06/05 03:38:56;;;;;;;11.60;3.35;;;;;;;16.52;100.00;100322.59;5096799;28;20043;-63
2023/06/05 03:41:22;;;;;;;9.32;4.38;;;;;;;16.82;100.00;100321.59;5096210;28;20031;-61
2023/06/05 03:43:49;;;;;;;7.97;3.20;;;;;;;17.01;100.00;100328.19;5096670;28;20682;-61
2023/06/05 03:46:18;;;;;;;7.97;3.25;;;;;;;17.29;100.00;100328.25;5096819;28;20047;-62
2023/06/05 03:48:43;;;;;;;6.82;3.30;;;;;;;17.46;100.00;100326.97;5099021;28;20028;-62
2023/06/05 03:51:09;;;;;;;7.15;3.10;;;;;;;17.64;100.00;100331.03;5095604;28;20055;-62
2023/06/05 03:53:34;;;;;;;7.25;3.13;;;;;;;17.75;100.00;100325.22;5096708;28;20043;-62
2023/06/05 03:56:00;;;;;;;7.15;3.10;;;;;;;17.76;100.00;100322.34;5096141;28;20387;-62
2023/06/05 03:58:26;;;;;;;9.13;3.38;;;;;;;17.75;100.00;100323.38;5065794;28;20044;-62
2023/06/05 04:00:53;;;;;;;8.65;3.08;;;;;;;17.69;100.00;100318.78;5096660;28;20043;-62
2023/06/05 04:03:20;;;;;;;11.63;4.38;;;;;;;17.69;100.00;100324.13;5096785;28;20096;-62
2023/06/05 04:05:45;;;;;;;9.65;3.60;;;;;;;17.50;100.00;100325.56;5095048;28;20043;-61
2023/06/05 04:08:11;;;;;;;7.57;3.75;;;;;;;17.49;100.00;100313.19;5094975;28;20034;-62
2023/06/05 04:10:37;;;;;;;10.90;3.72;;;;;;;17.39;100.00;100310.03;5095684;28;20039;-62
2023/06/05 04:13:03;;;;;;;5.53;3.55;;;;;;;17.03;100.00;100318.13;5096288;28;20035;-62
2023/06/05 04:15:29;;;;;;;6.55;3.45;;;;;;;16.81;100.00;100311.09;5095320;28;20365;-61
2023/06/05 04:17:55;;;;;;;13.15;3.47;;;;;;;16.84;100.00;100310.72;5095493;28;20116;-61
2023/06/05 04:20:21;;;;;;;5.25;2.33;;;;;;;16.59;100.00;100318.16;5094866;28;20053;-62
2023/06/05 04:22:47;;;;;;;4.55;2.67;;;;;;;16.49;100.00;100314.97;5096134;28;20865;-61
2023/06/05 04:25:13;;;;;;;6.60;2.78;;;;;;;16.61;100.00;100313.47;5095742;28;20028;-62
2023/06/05 04:27:40;;;;;;;10.55;2.92;;;;;;;16.81;100.00;100322.63;5096282;28;20036;-62
2023/06/05 04:30:07;;;;;;;6.70;2.63;;;;;;;17.04;100.00;100329.66;5094733;28;20103;-62
2023/06/05 04:32:34;;;;;;;9.50;2.92;;;;;;;17.29;100.00;100343.50;5094835;28;20394;-62
2023/06/05 04:35:00;;;;;;;4.70;2.58;;;;;;;17.30;100.00;100339.78;5095151;28;20046;-62
2023/06/05 04:37:26;;;;;;;4.88;2.35;;;;;;;17.21;100.00;100331.88;5096957;28;20047;-62
2023/06/05 04:39:51;;;;;;;3.72;2.17;;;;;;;17.16;100.00;100334.31;5095446;28;20166;-62
2023/06/05 04:42:17;;;;;;;3.47;2.25;;;;;;;16.94;100.00;100332.63;5095422;28;20394;-62
2023/06/05 04:44:43;;;;;;;8.85;2.50;;;;;;;17.11;100.00;100333.22;5095803;28;20104;-62
2023/06/05 04:47:08;;;;;;;7.00;2.42;;;;;;;17.14;100.00;100347.06;5095671;28;20046;-62
2023/06/05 04:49:34;;;;;;;8.07;2.80;;;;;;;17.20;100.00;100348.13;5096472;28;20043;-61
2023/06/05 04:51:59;;;;;;;7.18;2.47;;;;;;;17.18;100.00;100350.19;5096092;28;20051;-62
2023/06/05 04:54:25;;;;;;;4.97;2.30;;;;;;;17.48;100.00;100353.56;5094817;28;20555;-62
2023/06/05 04:56:52;;;;;;;7.38;3.03;;;;;;;17.29;100.00;100357.69;5097208;28;20055;-63
2023/06/05 04:59:18;;;;;;;6.60;2.90;;;;;;;17.23;100.00;100355.78;5095972;28;20032;-62
2023/06/05 05:01:43;;;;;;;6.18;2.88;;;;;;;17.52;100.00;100361.00;5093566;28;20225;-61
2023/06/05 05:04:09;;;;;;;8.10;2.63;;;;;;;17.53;100.00;100369.88;5094733;28;20036;-62
2023/06/05 05:06:35;;;;;;;9.20;2.88;;;;;;;17.71;100.00;100366.78;5094822;28;20032;-63
2023/06/05 05:09:00;;;;;;;7.40;2.97;;;;;;;17.93;100.00;100365.75;5094855;28;20027;-62
2023/06/05 05:11:26;;;;;;;6.05;2.63;;;;;;;18.02;100.00;100363.75;5095850;28;20043;-61
2023/06/05 05:13:52;;;;;;;6.15;2.47;;;;;;;18.13;99.71;100369.38;5094546;28;20035;-62
2023/06/05 05:16:17;;;;;;;5.03;3.05;;;;;;;18.19;99.70;100382.00;5093904;28;20058;-62
2023/06/05 05:18:44;;;;;;;5.28;3.58;;;;;;;18.32;99.00;100375.91;5094089;28;20039;-62
2023/06/05 05:21:10;;;;;;;6.45;3.03;;;;;;;18.38;96.85;100375.13;5093838;28;20028;-62
2023/06/05 05:23:35;;;;;;;6.30;3.00;;;;;;;18.32;96.80;100383.94;5094580;28;20215;-62
2023/06/05 05:26:01;;;;;;;7.57;3.50;;;;;;;18.36;96.19;100354.88;5093837;28;20040;-62
2023/06/05 05:28:28;;;;;;;5.60;3.28;;;;;;;18.59;97.58;100386.78;5095300;28;20077;-63
2023/06/05 05:30:55;;;;;;;7.13;2.42;;;;;;;18.36;95.43;100381.69;5094979;28;20052;-62
2023/06/05 05:33:22;;;;;;;6.70;3.03;;;;;;;18.46;96.36;100385.69;5094846;28;20055;-61
2023/06/05 05:35:47;;;;;;;5.03;3.15;;;;;;;18.59;94.89;100386.78;5094405;28;20333;-62
2023/06/05 05:38:13;;;;;;;5.40;3.33;;;;;;;18.77;95.81;100382.59;5094323;28;20042;-62
2023/06/05 05:40:38;;;;;;;7.05;3.95;;;;;;;18.84;95.35;100392.53;5094863;28;20050;-61
2023/06/05 05:43:03;;;;;;;7.85;4.30;;;;;;;18.92;94.67;100395.88;5094767;28;20032;-62
2023/06/05 05:45:29;;;;;;;6.90;3.78;;;;;;;18.95;94.80;100398.16;5094839;28;20286;-62
2023/06/05 05:47:54;;;;;;;9.35;3.35;;;;;;;19.19;93.00;100396.78;5094984;28;20470;-62
2023/06/05 05:50:20;;;;;;;4.97;3.03;;;;;;;19.42;91.86;100393.75;5094163;28;20035;-62
2023/06/05 05:52:47;;;;;;;7.38;3.25;;;;;;;19.34;90.65;100401.97;5095025;28;20048;-62
2023/06/05 05:55:13;;;;;;;7.60;2.83;;;;;;;19.56;88.94;100400.81;5094979;28;20059;-62
2023/06/05 05:57:38;;;;;;;5.47;2.25;;;;;;;19.69;89.64;100400.84;5093923;28;20274;-62
2023/06/05 06:00:12;;;;;;;8.00;2.60;;;;;;;19.70;87.69;100404.34;5094596;28;20130;-63
2023/06/05 06:02:41;;;;;;;;;;;;;;;19.54;87.65;100400.19;5095320;28;20048;-62
2023/06/05 06:05:07;;;;;;;9.65;2.92;;;;;;;19.66;87.78;100400.41;5093636;28;19919;-62
2023/06/05 06:07:32;;;;;;;3.80;2.47;;;;;;;19.75;88.37;100402.69;5094312;28;20032;-62
2023/06/05 06:09:58;;;;;;;6.85;2.72;;;;;;;19.90;87.47;100397.16;5094699;28;20068;-62
2023/06/05 06:12:24;;;;;;;6.20;2.85;;;;;;;20.06;86.47;100387.84;5094591;28;20032;-62
2023/06/05 06:14:50;;;;;;;6.63;2.85;;;;;;;20.13;85.85;100398.59;5094862;28;20337;-62
2023/06/05 06:17:15;;;;;;;6.20;2.78;;;;;;;20.20;85.64;100391.34;5094575;28;20051;-62
2023/06/05 06:19:42;;;;;;;5.00;2.47;;;;;;;20.19;84.83;100393.19;5094732;28;20207;-61
2023/06/05 06:22:11;;;;;;;6.30;3.08;;;;;;;20.09;84.99;100387.41;5097967;28;20043;-63
2023/06/05 06:24:38;;;;;;;6.10;3.33;;;;;;;19.88;86.51;100383.09;5097392;28;20157;-62
2023/06/05 06:27:04;;;;;;;7.97;2.80;;;;;;;20.06;86.23;100390.53;5097721;28;20098;-62
2023/06/05 06:29:31;;;;;;;4.90;2.97;;;;;;;20.24;84.70;100384.50;5097011;28;20256;-62
2023/06/05 06:32:43;;;;;;;7.00;2.90;;;;;;;20.48;84.87;100391.13;5292989;22;20115;-63
2023/06/05 06:35:08;;;;;;;5.20;2.83;;;;;;;20.56;84.98;100385.50;5109220;28;20099;-64
2023/06/05 06:37:34;;;;;;;6.10;2.92;;;;;;;20.49;85.02;100387.38;5117918;28;20271;-64
2023/06/05 06:39:59;;;;;;;8.48;3.25;;;;;;;20.30;85.43;100384.50;5120448;28;20038;-64
2023/06/05 06:42:26;;;;;;;6.38;3.22;;;;;;;20.56;85.80;100372.88;5120335;28;20251;-64
2023/06/05 06:44:55;;;;;;;7.25;3.00;;;;;;;20.90;84.73;100377.13;5120544;28;20027;-64
2023/06/05 06:47:22;;;;;;;6.35;2.83;;;;;;;20.75;84.03;100375.72;5119150;28;20257;-64
2023/06/05 06:49:47;;;;;;;10.35;3.92;;;;;;;21.04;83.83;100377.88;5120329;28;20028;-64
2023/06/05 06:52:13;;;;;;;6.28;3.08;;;;;;;21.34;82.88;100378.97;5119542;28;20083;-64
2023/06/05 06:54:38;;;;;;;6.40;3.13;;;;;;;21.35;82.48;100377.13;5120280;28;20071;-64
2023/06/05 06:57:04;;;;;;;4.75;3.17;;;;;;;21.32;82.04;100380.25;5119673;28;20039;-64
2023/06/05 06:59:30;;;;;;;6.70;3.67;;;;;;;21.49;81.82;100391.31;5119993;28;20028;-64
2023/06/05 07:02:14;;;;;;;7.32;3.60;;;;;;;21.61;81.51;100390.41;5119214;28;20058;-64
2023/06/05 07:04:41;;;;;;;4.13;3.67;;;;;;;21.73;80.34;100384.31;5119823;28;20039;-64
2023/06/05 07:07:14;;;;;;;7.20;3.53;;;;;;;21.82;80.13;100383.81;5119408;28;20151;-64
2023/06/05 07:09:40;;;;;;;6.13;3.47;;;;;;;21.88;79.07;100380.28;5119107;28;20398;-64
2023/06/05 07:12:09;;;;;;;8.20;3.88;;;;;;;21.98;78.69;100369.81;5119470;28;20376;-64
2023/06/05 07:14:34;;;;;;;5.95;3.47;;;;;;;21.89;78.37;100371.13;5119261;28;20054;-64
2023/06/05 07:17:01;;;;;;;6.05;4.00;;;;;;;21.94;79.88;100373.19;5117276;28;20324;-64
2023/06/05 07:19:27;;;;;;;8.20;4.00;;;;;;;21.86;80.21;100368.06;5097341;28;20097;-64
2023/06/05 07:21:55;;;;;;;6.45;3.78;;;;;;;21.78;79.58;100369.13;5095708;28;20039;-64
2023/06/05 07:24:20;;;;;;;8.32;3.85;;;;;;;21.70;80.65;100368.56;5096646;28;20099;-64
2023/06/05 07:26:46;;;;;;;6.90;4.13;;;;;;;21.72;81.04;100366.50;5098023;28;20036;-64
2023/06/05 07:29:11;;;;;;;5.00;3.88;;;;;;;21.72;81.32;100363.78;5096484;28;20040;-64
2023/06/05 07:31:38;;;;;;;8.82;4.30;;;;;;;21.67;80.42;100364.44;5097643;28;20044;-64
2023/06/05 07:34:04;;;;;;;6.60;4.30;;;;;;;21.61;81.34;100368.84;5096306;28;20039;-64
2023/06/05 07:36:30;;;;;;;7.88;4.45;;;;;;;21.67;82.76;100365.28;5096735;28;20024;-64
2023/06/05 07:38:56;;;;;;;6.65;4.47;;;;;;;21.78;81.82;100363.75;5097843;28;20042;-64
2023/06/05 07:41:21;;;;;;;9.18;5.07;;;;;;;21.71;82.88;100368.34;5096736;28;20046;-64
2023/06/05 07:43:47;;;;;;;7.88;4.47;;;;;;;21.77;82.77;100369.34;5095413;28;20324;-64
2023/06/05 07:46:14;;;;;;;5.88;4.10;;;;;;;21.88;83.53;100374.06;5097487;28;20246;-64
2023/06/05 07:48:39;;;;;;;7.50;4.57;;;;;;;21.83;83.89;100376.56;5096846;28;20032;-64
2023/06/05 07:51:05;;;;;;;8.57;4.82;;;;;;;21.89;83.43;100378.41;5095795;28;20317;-64
2023/06/05 07:53:30;;;;;;;17.80;5.35;;;;;;;21.85;84.24;100379.88;5096622;28;20028;-64
2023/06/05 07:55:56;;;;;;;6.88;4.57;;;;;;;21.92;83.81;100375.25;5095023;28;20214;-64
2023/06/05 07:58:21;;;;;;;9.93;4.32;;;;;;;21.98;82.93;100372.50;5097475;28;20047;-64
2023/06/05 08:00:47;;;;;;;5.82;4.10;;;;;;;22.11;82.41;100377.00;5097368;28;20024;-64
2023/06/05 08:03:19;;;;;;;9.68;5.03;;;;;;;22.26;81.80;100376.63;5096189;28;20153;-64
2023/06/05 08:05:49;;;;;;;7.40;4.30;;;;;;;22.45;81.70;100372.06;5095682;28;20381;-64
2023/06/05 08:08:15;;;;;;;8.32;4.72;;;;;;;22.44;81.44;100370.44;5092857;28;20051;-64
2023/06/05 08:10:41;;;;;;;9.43;5.28;;;;;;;22.62;80.47;100368.56;5096677;28;20028;-64
2023/06/05 08:13:10;;;;;;;8.73;5.22;;;;;;;23.02;79.59;100359.19;5097844;28;20074;-64
2023/06/05 08:15:36;;;;;;;15.70;5.50;;;;;;;23.43;79.68;100361.91;5097481;28;20233;-64
2023/06/05 08:18:02;;;;;;;7.75;4.53;;;;;;;23.65;77.40;100356.00;5095462;28;20044;-64
2023/06/05 08:20:28;;;;;;;6.63;4.55;;;;;;;23.88;74.96;100350.59;5096261;28;20031;-64
2023/06/05 08:23:00;;;;;;;7.80;4.75;;;;;;;24.34;74.68;100349.00;5096294;28;20067;-64
2023/06/05 08:25:26;;;;;;;8.35;5.22;;;;;;;24.69;73.60;100340.81;5097944;28;20028;-64
2023/06/05 08:27:52;;;;;;;10.65;5.82;;;;;;;24.96;72.50;100336.47;5097513;28;20396;-64
2023/06/05 08:30:18;;;;;;;9.25;5.63;;;;;;;25.25;70.16;100331.91;5096990;28;20036;-64
2023/06/05 08:32:43;;;;;;;14.88;4.95;;;;;;;25.27;69.55;100334.38;5096204;28;20390;-64
2023/06/05 08:35:12;;;;;;;8.65;5.18;;;;;;;25.29;70.57;100330.34;5096156;28;20321;-64
2023/06/05 08:37:38;;;;;;;11.43;4.90;;;;;;;25.36;71.59;100327.50;5096947;28;20049;-64
2023/06/05 08:40:11;;;;;;;8.63;4.57;;;;;;;25.28;69.22;100327.88;5095329;28;20047;-64
2023/06/05 08:42:38;;;;;;;7.95;4.88;;;;;;;25.43;71.81;100328.97;5096527;28;20084;-64
2023/06/05 08:45:08;;;;;;;13.30;5.07;;;;;;;24.98;71.18;100323.56;5097695;28;20514;-64
2023/06/05 08:47:36;;;;;;;7.93;5.40;;;;;;;25.01;70.51;100322.25;5094269;28;20032;-64
2023/06/05 08:50:05;;;;;;;10.48;5.18;;;;;;;24.64;72.49;100309.03;5094574;28;20390;-64
2023/06/05 08:52:34;;;;;;;7.22;4.57;;;;;;;24.49;75.17;100308.72;5097159;28;20081;-64
2023/06/05 08:55:00;;;;;;;9.02;5.20;;;;;;;24.58;74.37;100303.75;5094363;28;20057;-64
2023/06/05 08:57:27;;;;;;;8.77;5.22;;;;;;;24.61;73.41;100312.22;5094668;28;20043;-64
2023/06/05 08:59:53;;;;;;;6.78;4.60;;;;;;;24.96;74.70;100309.38;5095492;28;20051;-64
2023/06/05 09:02:19;;;;;;;7.07;4.70;;;;;;;25.25;73.11;100309.41;5093920;28;20162;-64
2023/06/05 09:04:44;;;;;;;9.25;5.18;;;;;;;25.42;74.06;100312.94;5097303;28;20341;-64
2023/06/05 09:07:11;;;;;;;7.32;5.07;;;;;;;25.37;73.27;100310.16;5094659;28;20260;-64
2023/06/05 09:09:37;;;;;;;6.63;4.97;;;;;;;25.08;75.41;100317.50;5096970;28;20059;-64
2023/06/05 09:12:07;;;;;;;7.75;5.55;;;;;;;24.88;75.79;100308.94;5097284;28;20493;-64
2023/06/05 09:14:33;;;;;;;6.13;4.60;;;;;;;24.75;77.32;100297.34;5097469;28;20276;-64
2023/06/05 09:17:03;;;;;;;6.75;4.90;;;;;;;24.54;77.46;100306.13;5096211;28;20036;-64
2023/06/05 09:19:47;;;;;;;10.43;5.82;;;;;;;24.54;76.59;100305.28;5096160;28;20370;-64
2023/06/05 09:22:14;;;;;;;7.20;5.20;;;;;;;24.62;76.37;100297.63;5096046;28;20073;-64
2023/06/05 09:24:40;;;;;;;8.05;5.22;;;;;;;24.29;77.24;100297.47;5096220;28;20040;-64
2023/06/05 09:27:10;;;;;;;8.68;4.70;;;;;;;24.25;81.19;100304.41;5095968;28;20047;-64
2023/06/05 09:29:38;;;;;;;9.05;5.25;;;;;;;23.97;79.83;100294.31;5095476;28;20055;-64
2023/06/05 09:32:06;;;;;;;7.72;4.93;;;;;;;24.03;82.06;100298.78;5095815;28;20137;-64
2023/06/05 09:34:37;;;;;;;7.57;5.78;;;;;;;23.67;81.65;100295.22;5096445;28;20038;-64
2023/06/05 09:37:05;;;;;;;12.90;5.63;;;;;;;23.88;80.31;100288.41;5097302;28;20058;-64
2023/06/05 09:39:33;;;;;;;9.55;6.07;;;;;;;23.74;82.58;100285.13;5096875;28;20042;-64
2023/06/05 09:41:59;;;;;;;9.23;5.65;;;;;;;23.67;82.08;100292.53;5095282;28;20111;-64
2023/06/05 09:44:26;;;;;;;7.32;5.60;;;;;;;23.68;81.50;100280.66;5095056;28;20028;-64
2023/06/05 09:47:08;;;;;;;6.88;4.80;;;;;;;23.74;82.06;100281.59;5094750;28;20063;-64
2023/06/05 09:49:42;;;;;;;7.68;5.35;;;;;;;23.60;81.64;100289.09;5097170;28;20036;-64
2023/06/05 09:52:09;;;;;;;6.97;4.75;;;;;;;23.62;80.34;100281.59;5096116;28;20171;-64
2023/06/05 09:54:37;;;;;;;5.90;4.50;;;;;;;23.81;82.18;100279.59;5095506;28;20028;-64
2023/06/05 09:57:05;;;;;;;8.02;5.25;;;;;;;23.62;80.80;100283.47;5096685;28;20031;-64
2023/06/05 09:59:32;;;;;;;8.07;6.05;;;;;;;23.63;80.81;100271.59;5094734;28;20048;-64
2023/06/05 10:02:05;;;;;;;7.53;4.97;;;;;;;23.65;80.11;100267.59;5095914;28;20207;-64
2023/06/05 10:04:49;;;;;;;6.95;5.43;;;;;;;23.82;77.70;100268.53;5095781;28;20293;-64
2023/06/05 10:07:15;;;;;;;7.63;4.80;;;;;;;23.87;76.85;100263.25;5099914;28;20036;-64
2023/06/05 10:09:41;;;;;;;7.32;4.65;;;;;;;23.96;77.65;100257.50;5098816;28;20048;-64
2023/06/05 10:12:08;;;;;;;5.63;3.88;;;;;;;24.03;73.75;100269.03;5100525;28;20035;-64
2023/06/05 10:14:40;;;;;;;6.32;4.28;;;;;;;24.03;78.76;100252.78;5098379;28;20024;-64
2023/06/05 10:17:05;;;;;;;7.43;3.92;;;;;;;23.98;77.81;100256.22;5100110;28;20092;-64
2023/06/05 10:19:32;;;;;;;6.90;4.22;;;;;;;24.00;77.31;100237.84;5099530;28;20253;-64
2023/06/05 10:21:58;;;;;;;7.10;4.03;;;;;;;24.09;77.90;100244.53;5099574;28;20039;-64
2023/06/05 10:24:29;;;;;;;5.25;4.38;;;;;;;24.24;75.76;100248.63;5099425;28;20059;-64
2023/06/05 10:27:24;;;;;;;5.40;3.88;;;;;;;24.46;77.88;100249.66;5100682;28;20055;-64
2023/06/05 10:30:04;;;;;;;7.18;3.90;;;;;;;24.37;77.82;100243.78;5089131;28;20044;-64
2023/06/05 10:32:29;;;;;;;5.85;4.00;;;;;;;24.51;73.72;100252.47;5094680;28;20051;-64
2023/06/05 10:35:06;;;;;;;9.60;4.20;;;;;;;24.32;73.53;100243.69;5100324;28;20340;-64
2023/06/05 10:37:57;;;;;;;4.65;3.40;;;;;;;24.28;70.10;100239.00;5090940;28;20058;-64
2023/06/05 10:40:25;;;;;;;6.90;3.60;;;;;;;24.27;68.38;100238.19;5061511;28;20052;-64
2023/06/05 10:42:50;;;;;;;4.68;3.40;;;;;;;24.36;69.90;100236.72;5079480;28;20033;-64
2023/06/05 10:45:34;;;;;;;5.05;3.50;;;;;;;24.38;70.33;100225.66;5099229;28;20035;-64
2023/06/05 10:48:00;;;;;;;;;;;;;;;24.31;69.87;100231.22;5094274;28;20043;-64
2023/06/05 10:50:27;;;;;;;3.90;2.67;;;;;;;24.24;69.72;100222.38;5100505;28;19919;-64
2023/06/05 10:52:55;;;;;;;5.30;3.17;;;;;;;24.22;69.53;100221.81;5098531;28;20287;-64
2023/06/05 10:55:22;;;;;;;4.78;3.72;;;;;;;24.23;68.30;100217.22;5098413;28;20036;-64
2023/06/05 10:58:08;;;;;;;5.85;3.40;;;;;;;24.21;71.13;100220.16;5096083;28;20107;-64
2023/06/05 11:00:34;;;;;;;5.78;3.92;;;;;;;24.36;69.53;100219.69;5096260;28;20178;-64
2023/06/05 11:03:01;;;;;;;5.22;3.13;;;;;;;24.25;66.90;100215.09;5096958;28;20286;-64
2023/06/05 11:05:27;;;;;;;5.90;3.53;;;;;;;24.32;66.39;100211.22;5099367;28;20028;-64
2023/06/05 11:08:14;;;;;;;5.30;2.92;;;;;;;24.46;65.52;100206.34;5099075;28;20035;-64
2023/06/05 11:11:02;;;;;;;3.33;3.00;;;;;;;24.51;66.78;100215.38;5098847;28;20394;-64
2023/06/05 11:13:56;;;;;;;5.88;3.45;;;;;;;24.54;68.74;100207.84;5096650;28;20317;-64
2023/06/05 11:16:33;;;;;;;5.65;3.67;;;;;;;24.48;68.09;100196.91;5095970;28;20134;-64
2023/06/05 11:19:20;;;;;;;4.00;3.10;;;;;;;24.56;65.97;100206.53;5100120;28;20028;-64
2023/06/05 11:22:02;;;;;;;4.38;3.25;;;;;;;24.62;64.13;100194.72;5078247;28;20056;-64
2023/06/05 11:24:28;;;;;;;4.55;2.50;;;;;;;24.72;66.78;100205.75;5089995;28;20043;-64
2023/06/05 11:26:54;;;;;;;4.15;3.20;;;;;;;24.59;62.98;100203.34;5098051;28;20316;-64